createdAt,value
2023-04-08T00:03:01.723Z,8.34
2023-04-08T00:06:04.649Z,8.29
2023-04-08T00:09:07.819Z,8.20
2023-04-08T00:12:09.532Z,8.18
2023-04-08T00:15:11.707Z,8.22
2023-04-08T00:18:14.129Z,8.17
2023-04-08T00:21:17.982Z,8.13
2023-04-08T00:24:21.183Z,8.06
2023-04-08T00:27:25.121Z,8.08
2023-04-08T00:30:28.139Z,8.04
2023-04-08T00:33:29.945Z,8.07
2023-04-08T00:36:31.645Z,8.11
2023-04-08T00:39:34.804Z,8.10
2023-04-08T00:42:36.691Z,8.17
2023-04-08T00:45:38.920Z,8.12
2023-04-08T00:48:40.693Z,8.09
2023-04-08T00:51:42.387Z,8.11
2023-04-08T00:54:45.505Z,8.10
2023-04-08T00:57:48.194Z,8.10
2023-04-08T01:01:03.838Z,8.13
2023-04-08T01:04:13.556Z,8.16
2023-04-08T01:07:18.869Z,8.19
2023-04-08T01:10:27.794Z,8.14
2023-04-08T01:13:35.308Z,8.07
2023-04-08T01:16:40.830Z,8.07
2023-04-08T01:19:44.833Z,8.07
2023-04-08T01:22:58.180Z,8.10
2023-04-08T01:26:01.477Z,8.15
2023-04-08T01:29:04.696Z,8.13
2023-04-08T01:32:08.133Z,8.11
2023-04-08T01:35:10.783Z,8.00
2023-04-08T01:38:18.111Z,7.94
2023-04-08T01:41:22.090Z,7.93
2023-04-08T01:44:25.948Z,7.83
2023-04-08T01:47:29.691Z,7.83
2023-04-08T01:50:32.496Z,7.88
2023-04-08T01:53:34.752Z,7.84
2023-04-08T01:56:41.112Z,7.91
2023-04-08T01:59:45.995Z,7.88
2023-04-08T02:02:50.829Z,7.86
2023-04-08T02:05:56.482Z,7.83
2023-04-08T02:08:59.598Z,7.83
2023-04-08T02:12:02.952Z,7.81
2023-04-08T02:15:05.797Z,7.85
2023-04-08T02:18:15.476Z,7.82
2023-04-08T02:21:19.288Z,7.77
2023-04-08T02:24:22.464Z,7.72
2023-04-08T02:27:27.506Z,7.70
2023-04-08T02:30:31.294Z,7.65
2023-04-08T02:33:35.113Z,7.49
2023-04-08T02:36:37.371Z,7.49
2023-04-08T02:39:39.090Z,7.49
2023-04-08T02:42:42.335Z,7.50
2023-04-08T02:45:44.889Z,7.48
2023-04-08T02:48:46.850Z,7.47
2023-04-08T02:51:48.672Z,7.48
2023-04-08T02:54:50.318Z,7.51
2023-04-08T02:57:53.411Z,7.49
2023-04-08T03:00:56.312Z,7.43
2023-04-08T03:03:58.252Z,7.41
2023-04-08T03:07:00.263Z,7.44
2023-04-08T03:10:04.353Z,7.55
2023-04-08T03:13:07.442Z,7.60
2023-04-08T03:16:09.752Z,7.63
2023-04-08T03:19:12.633Z,7.60
2023-04-08T03:22:14.452Z,7.67
2023-04-08T03:25:16.232Z,7.58
2023-04-08T03:28:19.390Z,7.52
2023-04-08T03:31:21.356Z,7.44
2023-04-08T03:34:23.150Z,7.37
2023-04-08T03:37:24.988Z,7.37
2023-04-08T03:40:26.754Z,7.32
2023-04-08T03:43:30.014Z,7.30
2023-04-08T03:46:31.814Z,7.27
2023-04-08T03:49:33.554Z,7.31
2023-04-08T03:52:35.815Z,7.30
2023-04-08T03:55:37.774Z,7.33
2023-04-08T03:58:41.258Z,7.32
2023-04-08T04:01:43.371Z,7.34
2023-04-08T04:04:45.452Z,7.30
2023-04-08T04:07:47.259Z,7.22
2023-04-08T04:10:48.993Z,7.20
2023-04-08T04:13:52.081Z,7.23
2023-04-08T04:16:53.762Z,7.33
2023-04-08T04:19:55.813Z,7.36
2023-04-08T04:22:58.006Z,7.34
2023-04-08T04:25:59.922Z,7.36
2023-04-08T04:29:02.931Z,7.43
2023-04-08T04:32:05.052Z,7.37
2023-04-08T04:35:07.281Z,7.43
2023-04-08T04:38:13.329Z,7.46
2023-04-08T04:41:15.552Z,7.47
2023-04-08T04:44:19.687Z,7.46
2023-04-08T04:47:21.316Z,7.46
2023-04-08T04:50:22.974Z,7.51
2023-04-08T04:53:25.317Z,7.44
2023-04-08T04:56:27.162Z,7.43
2023-04-08T04:59:30.612Z,7.42
2023-04-08T05:02:32.492Z,7.36
2023-04-08T05:05:34.784Z,7.35
2023-04-08T05:08:36.601Z,7.21
2023-04-08T05:11:38.256Z,7.13
2023-04-08T05:14:42.284Z,7.04
2023-04-08T05:17:43.953Z,6.81
2023-04-08T05:20:45.919Z,6.58
2023-04-08T05:23:47.699Z,6.43
2023-04-08T05:26:53.136Z,6.39
2023-04-08T05:29:56.311Z,6.19
2023-04-08T05:33:00.370Z,6.07
2023-04-08T05:36:02.718Z,5.92
2023-04-08T05:39:04.428Z,5.86
2023-04-08T05:42:06.246Z,5.90
2023-04-08T05:45:11.201Z,6.03
2023-04-08T05:48:13.038Z,5.93
2023-04-08T05:51:15.493Z,5.78
2023-04-08T05:54:17.303Z,5.71
2023-04-08T05:57:19.349Z,5.65
2023-04-08T06:00:23.000Z,5.67
2023-04-08T06:03:24.844Z,5.65
2023-04-08T06:06:27.002Z,5.65
2023-04-08T06:09:29.283Z,5.78
2023-04-08T06:12:31.148Z,5.76
2023-04-08T06:15:34.512Z,5.74
2023-04-08T06:18:36.201Z,5.95
2023-04-08T06:21:37.991Z,6.14
2023-04-08T06:24:40.408Z,6.34
2023-04-08T06:27:42.283Z,6.44
2023-04-08T06:30:45.408Z,6.54
2023-04-08T06:33:47.169Z,6.62
2023-04-08T06:36:50.275Z,6.54
2023-04-08T06:39:52.035Z,6.65
2023-04-08T06:42:54.244Z,6.68
2023-04-08T06:46:08.749Z,6.76
2023-04-08T06:49:10.678Z,6.87
2023-04-08T06:52:14.235Z,7.03
2023-04-08T06:55:17.029Z,7.19
2023-04-08T06:58:18.891Z,7.09
2023-04-08T07:01:22.575Z,7.14
2023-04-08T07:04:24.386Z,7.15
2023-04-08T07:07:26.736Z,7.23
2023-04-08T07:10:28.484Z,7.32
2023-04-08T07:13:31.181Z,7.52
2023-04-08T07:16:34.346Z,7.77
2023-04-08T07:19:36.545Z,7.90
2023-04-08T07:22:39.329Z,7.81
2023-04-08T07:25:41.072Z,7.96
2023-04-08T07:28:42.866Z,8.20
2023-04-08T07:31:46.155Z,8.22
2023-04-08T07:34:47.988Z,8.57
2023-04-08T07:37:49.980Z,8.42
2023-04-08T07:40:51.723Z,8.66
2023-04-08T07:43:53.486Z,8.64
2023-04-08T07:46:56.643Z,8.39
2023-04-08T07:49:58.287Z,8.53
2023-04-08T07:53:00.152Z,8.49
2023-04-08T07:56:04.082Z,8.90
2023-04-08T07:59:06.232Z,8.75
2023-04-08T08:02:09.780Z,8.98
2023-04-08T08:05:11.544Z,8.64
2023-04-08T08:08:13.326Z,8.69
2023-04-08T08:11:17.024Z,8.97
2023-04-08T08:14:19.059Z,9.40
2023-04-08T08:17:42.063Z,9.21
2023-04-08T08:20:43.794Z,9.19
2023-04-08T08:23:45.521Z,9.33
2023-04-08T08:26:49.521Z,9.34
2023-04-08T08:29:52.648Z,9.64
2023-04-08T08:32:59.018Z,10.07
2023-04-08T08:36:01.222Z,9.82
2023-04-08T08:39:03.030Z,10.10
2023-04-08T08:42:04.938Z,10.01
2023-04-08T08:45:08.276Z,10.17
2023-04-08T08:48:11.434Z,10.36
2023-04-08T08:51:13.727Z,10.86
2023-04-08T08:54:16.046Z,10.68
2023-04-08T08:57:18.852Z,10.75
2023-04-08T09:00:32.686Z,10.80
2023-04-08T09:03:37.552Z,10.67
2023-04-08T09:06:40.156Z,11.04
2023-04-08T09:09:51.729Z,10.68
2023-04-08T09:12:55.773Z,10.98
2023-04-08T09:16:03.582Z,10.93
2023-04-08T09:19:10.622Z,11.32
2023-04-08T09:22:12.497Z,11.46
2023-04-08T09:25:23.972Z,11.46
2023-04-08T09:28:26.139Z,10.79
2023-04-08T09:31:29.921Z,10.70
2023-04-08T09:34:34.374Z,11.27
2023-04-08T09:37:36.463Z,10.80
2023-04-08T09:40:40.332Z,11.17
2023-04-08T09:43:48.903Z,11.59
2023-04-08T09:46:59.464Z,10.93
2023-04-08T09:50:05.368Z,11.20
2023-04-08T09:53:13.681Z,11.55
2023-04-08T09:56:17.214Z,10.88
2023-04-08T09:59:22.198Z,11.40
2023-04-08T10:02:30.754Z,11.63
2023-04-08T10:05:38.783Z,11.26
2023-04-08T10:08:41.623Z,10.80
2023-04-08T10:11:43.638Z,11.11
2023-04-08T10:15:30.265Z,10.71
2023-04-08T10:18:32.859Z,10.54
2023-04-08T10:21:37.751Z,10.67
2023-04-08T10:24:39.442Z,10.87
2023-04-08T10:27:44.452Z,10.94
2023-04-08T10:30:46.927Z,10.85
2023-04-08T10:33:49.023Z,10.93
2023-04-08T10:36:54.400Z,11.15
2023-04-08T10:39:56.198Z,10.60
2023-04-08T10:42:58.218Z,10.78
2023-04-08T10:46:00.358Z,10.63
2023-04-08T10:49:02.333Z,11.19
2023-04-08T10:52:09.237Z,11.21
2023-04-08T10:55:11.833Z,11.43
2023-04-08T10:58:13.833Z,10.85
2023-04-08T11:01:15.597Z,11.33
2023-04-08T11:04:19.484Z,11.39
2023-04-08T11:07:28.282Z,11.28
2023-04-08T11:10:30.447Z,11.57
2023-04-08T11:13:33.514Z,11.14
2023-04-08T11:16:36.859Z,11.18
2023-04-08T11:19:39.212Z,11.27
2023-04-08T11:22:43.967Z,11.38
2023-04-08T11:25:48.126Z,11.38
2023-04-08T11:28:51.878Z,11.27
2023-04-08T11:31:54.786Z,11.85
2023-04-08T11:34:56.505Z,11.10
2023-04-08T11:37:59.584Z,11.47
2023-04-08T11:41:02.031Z,12.02
2023-04-08T11:44:03.859Z,11.94
2023-04-08T11:47:05.877Z,12.05
2023-04-08T11:50:09.304Z,11.96
2023-04-08T11:53:19.911Z,12.63
2023-04-08T11:56:26.021Z,11.56
2023-04-08T11:59:29.476Z,12.30
2023-04-08T12:02:31.677Z,12.84
2023-04-08T12:05:33.557Z,13.05
2023-04-08T12:08:37.785Z,12.00
2023-04-08T12:11:39.534Z,11.81
2023-04-08T12:14:41.390Z,11.71
2023-04-08T12:17:46.414Z,11.89
2023-04-08T12:20:48.120Z,12.02
2023-04-08T12:23:52.459Z,12.19
2023-04-08T12:26:54.604Z,13.14
2023-04-08T12:29:56.554Z,13.10
2023-04-08T12:32:58.370Z,12.96
2023-04-08T12:36:00.656Z,12.30
2023-04-08T12:39:04.003Z,12.21
2023-04-08T12:42:06.292Z,12.84
2023-04-08T12:45:09.576Z,13.80
2023-04-08T12:48:11.518Z,12.92
2023-04-08T12:51:13.388Z,13.39
2023-04-08T12:54:17.090Z,12.99
2023-04-08T12:57:19.015Z,13.16
2023-04-08T13:00:21.194Z,13.46
2023-04-08T13:03:27.243Z,13.70
2023-04-08T13:06:29.963Z,13.80
2023-04-08T13:09:33.798Z,13.91
2023-04-08T13:12:35.740Z,13.79
2023-04-08T13:15:38.133Z,13.49
2023-04-08T13:18:41.223Z,13.92
2023-04-08T13:21:45.516Z,14.82
2023-04-08T13:24:49.972Z,15.47
2023-04-08T13:27:52.587Z,14.61
2023-04-08T13:30:59.878Z,15.02
2023-04-08T13:34:01.712Z,14.10
2023-04-08T13:37:04.516Z,13.20
2023-04-08T13:40:09.759Z,13.67
2023-04-08T13:43:11.765Z,13.98
2023-04-08T13:46:16.110Z,13.93
2023-04-08T13:49:18.450Z,13.97
2023-04-08T13:52:20.526Z,13.46
2023-04-08T13:55:24.000Z,13.00
2023-04-08T13:58:26.647Z,13.21
2023-04-08T14:01:28.726Z,13.16
2023-04-08T14:04:30.661Z,13.30
2023-04-08T14:07:32.658Z,13.23
2023-04-08T14:10:36.659Z,13.33
2023-04-08T14:13:38.584Z,13.28
2023-04-08T14:16:42.888Z,13.22
2023-04-08T14:19:46.347Z,12.79
2023-04-08T14:22:48.571Z,13.24
2023-04-08T14:25:51.726Z,12.98
2023-04-08T14:28:53.565Z,13.27
2023-04-08T14:31:55.295Z,13.19
2023-04-08T14:34:57.581Z,12.85
2023-04-08T14:38:03.473Z,13.30
2023-04-08T14:41:07.649Z,13.41
2023-04-08T14:44:09.718Z,12.77
2023-04-08T14:47:12.352Z,12.74
2023-04-08T14:50:14.204Z,12.57
2023-04-08T14:53:15.841Z,12.82
2023-04-08T14:56:18.899Z,12.87
2023-04-08T14:59:20.603Z,12.58
2023-04-08T15:02:23.072Z,12.78
2023-04-08T15:05:24.967Z,12.35
2023-04-08T15:08:29.503Z,12.26
2023-04-08T15:11:34.103Z,12.31
2023-04-08T15:14:35.924Z,12.13
2023-04-08T15:17:37.921Z,12.46
2023-04-08T15:20:42.153Z,12.56
2023-04-08T15:23:46.259Z,12.27
2023-04-08T15:26:49.356Z,12.33
2023-04-08T15:29:51.123Z,12.48
2023-04-08T15:32:52.915Z,12.79
2023-04-08T15:35:54.934Z,12.71
2023-04-08T15:38:56.915Z,12.75
2023-04-08T15:42:01.438Z,12.87
2023-04-08T15:45:04.820Z,13.12
2023-04-08T15:48:07.016Z,13.12
2023-04-08T15:51:09.149Z,12.77
2023-04-08T15:54:11.640Z,13.39
2023-04-08T15:57:15.915Z,14.47
2023-04-08T16:00:18.178Z,15.61
2023-04-08T16:03:20.564Z,15.97
2023-04-08T16:06:22.412Z,15.85
2023-04-08T16:09:26.864Z,14.91
2023-04-08T16:12:30.438Z,13.66
2023-04-08T16:15:37.752Z,13.30
2023-04-08T16:18:46.246Z,13.83
2023-04-08T16:21:49.493Z,13.63
2023-04-08T16:24:53.067Z,13.16
2023-04-08T16:27:56.962Z,12.39
2023-04-08T16:31:00.657Z,12.46
2023-04-08T16:34:03.034Z,12.22
2023-04-08T16:37:05.777Z,12.27
2023-04-08T16:40:08.872Z,12.11
2023-04-08T16:43:13.381Z,12.27
2023-04-08T16:46:16.742Z,12.09
2023-04-08T16:49:18.559Z,11.89
2023-04-08T16:52:21.069Z,12.03
2023-04-08T16:55:22.942Z,12.15
2023-04-08T16:58:26.018Z,12.10
2023-04-08T17:01:27.919Z,11.82
2023-04-08T17:04:30.694Z,11.72
2023-04-08T17:07:32.854Z,11.89
2023-04-08T17:10:34.909Z,11.68
2023-04-08T17:13:38.784Z,11.80
2023-04-08T17:16:40.660Z,11.62
2023-04-08T17:19:43.000Z,11.62
2023-04-08T17:22:44.932Z,11.55
2023-04-08T17:25:46.805Z,11.31
2023-04-08T17:28:50.014Z,11.37
2023-04-08T17:31:51.914Z,11.36
2023-04-08T17:34:53.990Z,11.35
2023-04-08T17:37:55.903Z,11.25
2023-04-08T17:40:57.737Z,11.25
2023-04-08T17:44:01.544Z,11.12
2023-04-08T17:47:03.680Z,11.07
2023-04-08T17:50:10.506Z,11.05
2023-04-08T17:53:13.434Z,10.96
2023-04-08T17:56:15.416Z,10.81
2023-04-08T17:59:19.035Z,10.87
2023-04-08T18:02:20.862Z,10.72
2023-04-08T18:05:22.852Z,10.59
2023-04-08T18:08:24.909Z,10.55
2023-04-08T18:11:27.234Z,10.51
2023-04-08T18:14:30.288Z,10.56
2023-04-08T18:17:32.053Z,10.57
2023-04-08T18:20:35.709Z,10.59
2023-04-08T18:23:40.299Z,10.59
2023-04-08T18:26:43.812Z,10.70
2023-04-08T18:29:46.897Z,10.62
2023-04-08T18:32:48.696Z,10.57
2023-04-08T18:35:52.528Z,10.58
2023-04-08T18:38:54.329Z,10.61
2023-04-08T18:41:56.655Z,10.63
2023-04-08T18:44:59.919Z,10.54
2023-04-08T18:48:01.830Z,10.47
2023-04-08T18:51:03.791Z,10.47
2023-04-08T18:54:05.755Z,10.46
2023-04-08T18:57:07.698Z,10.40
2023-04-08T19:00:11.476Z,10.42
2023-04-08T19:03:13.441Z,10.38
2023-04-08T19:06:17.333Z,10.44
2023-04-08T19:09:19.176Z,10.32
2023-04-08T19:12:20.940Z,10.41
2023-04-08T19:15:24.278Z,10.54
2023-04-08T19:18:26.404Z,10.61
2023-04-08T19:21:30.674Z,10.64
2023-04-08T19:24:32.844Z,10.61
2023-04-08T19:27:34.771Z,10.61
2023-04-08T19:30:38.958Z,10.57
2023-04-08T19:33:40.853Z,10.63
2023-04-08T19:36:42.949Z,10.62
2023-04-08T19:39:45.021Z,10.27
2023-04-08T19:42:47.171Z,10.21
2023-04-08T19:45:54.606Z,9.94
2023-04-08T19:48:58.849Z,10.04
2023-04-08T19:52:01.305Z,10.17
2023-04-08T19:55:03.650Z,10.13
2023-04-08T19:58:05.398Z,10.23
2023-04-08T20:01:09.892Z,10.16
2023-04-08T20:04:11.753Z,10.32
2023-04-08T20:07:13.908Z,10.29
2023-04-08T20:10:16.261Z,10.25
2023-04-08T20:13:18.169Z,10.21
2023-04-08T20:16:21.263Z,10.18
2023-04-08T20:19:23.127Z,10.19
2023-04-08T20:22:26.003Z,10.11
2023-04-08T20:25:28.402Z,9.96
2023-04-08T20:28:30.477Z,9.91
2023-04-08T20:31:33.725Z,9.79
2023-04-08T20:34:35.575Z,9.89
2023-04-08T20:37:37.902Z,9.92
2023-04-08T20:40:43.824Z,9.86
2023-04-08T20:43:45.782Z,9.76
2023-04-08T20:46:49.760Z,9.85
2023-04-08T20:49:52.278Z,9.76
2023-04-08T20:52:53.994Z,9.65
2023-04-08T20:55:55.781Z,9.54
2023-04-08T20:58:59.663Z,9.58
2023-04-08T21:02:04.096Z,9.53
2023-04-08T21:05:05.976Z,9.45
2023-04-08T21:11:28.521Z,9.42
2023-04-08T21:14:34.650Z,9.33
2023-04-08T21:17:37.825Z,9.35
2023-04-08T21:20:40.122Z,9.34
2023-04-08T21:23:41.949Z,9.23
2023-04-08T21:26:43.652Z,9.22
2023-04-08T21:29:45.313Z,9.24
2023-04-08T21:32:48.520Z,9.34
2023-04-08T21:35:50.435Z,9.10
2023-04-08T21:38:52.916Z,9.14
2023-04-08T21:41:55.150Z,9.07
2023-04-08T21:44:56.825Z,9.06
2023-04-08T21:47:59.946Z,8.95
2023-04-08T21:51:01.943Z,8.79
2023-04-08T21:54:03.779Z,8.62
2023-04-08T21:57:05.976Z,8.61
2023-04-08T22:00:13.165Z,8.47
2023-04-08T22:03:19.329Z,8.38
2023-04-08T22:06:31.690Z,8.25
2023-04-08T22:09:34.722Z,8.43
2023-04-08T22:12:36.533Z,8.40
2023-04-08T22:15:38.360Z,8.30
2023-04-08T22:18:41.486Z,8.31
2023-04-08T22:21:43.434Z,8.21
2023-04-08T22:24:45.277Z,8.26
2023-04-08T22:27:47.050Z,7.88
2023-04-08T22:30:49.108Z,7.85
2023-04-08T22:33:52.282Z,7.58
2023-04-08T22:36:53.990Z,7.70
2023-04-08T22:39:55.639Z,7.75
2023-04-08T22:42:57.368Z,7.45
2023-04-08T22:45:59.147Z,7.68
2023-04-08T22:49:02.229Z,7.32
2023-04-08T22:52:03.964Z,7.53
2023-04-08T22:55:07.200Z,7.18
2023-04-08T22:58:08.982Z,7.23
2023-04-08T23:01:14.836Z,7.48
2023-04-08T23:04:17.997Z,6.98
2023-04-08T23:07:19.949Z,6.90
2023-04-08T23:10:21.866Z,7.07
2023-04-08T23:13:23.655Z,6.99
2023-04-08T23:16:25.600Z,7.13
2023-04-08T23:19:28.693Z,7.11
2023-04-08T23:22:30.877Z,7.17
2023-04-08T23:25:35.179Z,7.32
2023-04-08T23:28:37.174Z,7.32
2023-04-08T23:31:38.922Z,7.35
2023-04-08T23:34:42.086Z,7.22
2023-04-08T23:37:44.393Z,7.32
2023-04-08T23:40:46.210Z,7.44
2023-04-08T23:43:48.221Z,7.26
2023-04-08T23:46:49.948Z,7.24
2023-04-08T23:49:53.154Z,7.37
2023-04-08T23:52:55.274Z,7.42
2023-04-08T23:56:04.135Z,7.46
2023-04-08T23:59:06.073Z,7.56
